Pagrindinis puslapis
METAR-TAF:

METAR-TAF

Oro uostai :

Singapūras, Singapūras

platuma: 01-22N, ilguma: 103-55E, Aukštis: 18 m

Dabartinis oras

Ataskaita buvo paskelbta 22 minutes, ne 21:00 UTC
Vėjas 5 kt iš Pietų/Pietryčių
Temperatūra 28°C
Drėgmė 84%
Slėgis 1010 hPa
Matomumas 10 km arba daugiau
Mažai debesys ne aukštis 1800 ft
Su prošvaistėmis ne aukštis 15000 ft

METAR: WSAP 172100Z 15005KT 9999 FEW018 BKN150 28/25 Q1010

Laikas: 05:22 (21:22 UTC)

Prognozė

Ataskaita buvo paskelbta 4 valandos ir 22 minutes, ne 17:00 UTC
Prognozė galioja nuo 17 metu 18 UTC su 19 metu 00 UTC
Vėjas 10 kt iš Pietų
Matomumas 10 km arba daugiau
Mažai debesys ne aukštis 1500 ft
Išsisklaidę debesys ne aukštis 2000 ft

TAF: WSAP 171700Z 1718/1900 17010KT 9999 FEW015 SCT020

Orai ataskaitas ir orų prognozės (METAR, TAF).

turimą stotys yra geltonos ir raudonos taškus žemėlapyje.

Perkelti pele per norėdami pamatyti stoties vardą.

Tada spustelėkite, norėdami matyti oro stebėjimo ir prognozės.

Norėdami pakeisti žemėlapį: spustelėkite ant žalios mygtukų su juodo kryžiaus žemyn,; žalią mygtuką su brūkšneliu, jei norite nutolinti; arba žalių rodyklių gretimoms žemėlapius.


METAR-TAF: